sensor_id;sensor_type;location;lat;lon;timestamp;temperature;humidity
18839;DHT22;9548;56.920;14.804;2023-04-06T00:00:35;-0.10;99.90
18839;DHT22;9548;56.920;14.804;2023-04-06T00:03:01;-0.10;99.90
18839;DHT22;9548;56.920;14.804;2023-04-06T00:05:28;-0.10;99.90
18839;DHT22;9548;56.920;14.804;2023-04-06T00:07:57;-0.10;99.90
18839;DHT22;9548;56.920;14.804;2023-04-06T00:10:24;-0.10;99.90
18839;DHT22;9548;56.920;14.804;2023-04-06T00:12:51;-0.10;99.90
18839;DHT22;9548;56.920;14.804;2023-04-06T00:15:20;0.00;99.90
18839;DHT22;9548;56.920;14.804;2023-04-06T00:17:47;0.00;99.90
18839;DHT22;9548;56.920;14.804;2023-04-06T00:20:14;0.00;99.90
18839;DHT22;9548;56.920;14.804;2023-04-06T00:22:41;0.00;99.90
18839;DHT22;9548;56.920;14.804;2023-04-06T00:25:09;0.10;99.90
18839;DHT22;9548;56.920;14.804;2023-04-06T00:27:37;0.00;99.90
18839;DHT22;9548;56.920;14.804;2023-04-06T00:30:04;0.10;99.90
18839;DHT22;9548;56.920;14.804;2023-04-06T00:32:34;0.10;99.90
18839;DHT22;9548;56.920;14.804;2023-04-06T00:35:02;0.10;99.90
18839;DHT22;9548;56.920;14.804;2023-04-06T00:37:29;0.10;99.90
18839;DHT22;9548;56.920;14.804;2023-04-06T00:39:56;0.20;99.90
18839;DHT22;9548;56.920;14.804;2023-04-06T00:42:23;0.20;99.90
18839;DHT22;9548;56.920;14.804;2023-04-06T00:44:52;0.20;99.90
18839;DHT22;9548;56.920;14.804;2023-04-06T00:47:20;0.20;99.90
18839;DHT22;9548;56.920;14.804;2023-04-06T00:49:48;0.20;99.90
18839;DHT22;9548;56.920;14.804;2023-04-06T00:52:16;0.20;99.90
18839;DHT22;9548;56.920;14.804;2023-04-06T00:54:43;0.30;99.90
18839;DHT22;9548;56.920;14.804;2023-04-06T00:57:10;0.20;99.90
18839;DHT22;9548;56.920;14.804;2023-04-06T00:59:37;0.30;99.90
18839;DHT22;9548;56.920;14.804;2023-04-06T01:02:05;0.30;99.90
18839;DHT22;9548;56.920;14.804;2023-04-06T01:04:32;0.30;99.90
18839;DHT22;9548;56.920;14.804;2023-04-06T01:07:01;0.30;99.90
18839;DHT22;9548;56.920;14.804;2023-04-06T01:09:28;0.30;99.90
18839;DHT22;9548;56.920;14.804;2023-04-06T01:11:56;0.40;99.90
18839;DHT22;9548;56.920;14.804;2023-04-06T01:14:23;0.40;99.90
18839;DHT22;9548;56.920;14.804;2023-04-06T01:16:51;0.50;99.90
18839;DHT22;9548;56.920;14.804;2023-04-06T01:19:18;0.50;99.90
18839;DHT22;9548;56.920;14.804;2023-04-06T01:21:46;0.50;99.90
18839;DHT22;9548;56.920;14.804;2023-04-06T01:24:16;0.50;99.90
18839;DHT22;9548;56.920;14.804;2023-04-06T01:26:44;0.50;99.90
18839;DHT22;9548;56.920;14.804;2023-04-06T01:29:11;0.50;99.90
18839;DHT22;9548;56.920;14.804;2023-04-06T01:31:38;0.50;99.90
18839;DHT22;9548;56.920;14.804;2023-04-06T01:34:05;0.60;99.90
18839;DHT22;9548;56.920;14.804;2023-04-06T01:36:32;0.60;99.90
18839;DHT22;9548;56.920;14.804;2023-04-06T01:38:59;0.60;99.90
18839;DHT22;9548;56.920;14.804;2023-04-06T01:41:27;0.60;99.90
18839;DHT22;9548;56.920;14.804;2023-04-06T01:43:54;0.60;99.90
18839;DHT22;9548;56.920;14.804;2023-04-06T01:46:21;0.60;99.90
18839;DHT22;9548;56.920;14.804;2023-04-06T01:48:48;0.60;99.90
18839;DHT22;9548;56.920;14.804;2023-04-06T01:51:15;0.70;99.90
18839;DHT22;9548;56.920;14.804;2023-04-06T01:53:42;0.70;99.90
18839;DHT22;9548;56.920;14.804;2023-04-06T01:56:09;0.70;99.90
18839;DHT22;9548;56.920;14.804;2023-04-06T01:58:38;0.70;99.90
18839;DHT22;9548;56.920;14.804;2023-04-06T02:01:05;0.70;99.90
18839;DHT22;9548;56.920;14.804;2023-04-06T02:03:32;0.70;99.90
18839;DHT22;9548;56.920;14.804;2023-04-06T02:05:59;0.70;99.90
18839;DHT22;9548;56.920;14.804;2023-04-06T02:08:26;0.70;99.90
18839;DHT22;9548;56.920;14.804;2023-04-06T02:10:53;0.70;99.90
18839;DHT22;9548;56.920;14.804;2023-04-06T02:13:20;0.70;99.90
18839;DHT22;9548;56.920;14.804;2023-04-06T02:15:48;0.80;99.90
18839;DHT22;9548;56.920;14.804;2023-04-06T02:18:15;0.70;99.90
18839;DHT22;9548;56.920;14.804;2023-04-06T02:20:44;0.80;99.90
18839;DHT22;9548;56.920;14.804;2023-04-06T02:23:11;0.80;99.90
18839;DHT22;9548;56.920;14.804;2023-04-06T02:25:38;0.80;99.90
18839;DHT22;9548;56.920;14.804;2023-04-06T02:28:06;0.80;99.90
18839;DHT22;9548;56.920;14.804;2023-04-06T02:30:33;0.80;99.90
18839;DHT22;9548;56.920;14.804;2023-04-06T02:33:02;0.80;99.90
18839;DHT22;9548;56.920;14.804;2023-04-06T02:35:30;0.80;99.90
18839;DHT22;9548;56.920;14.804;2023-04-06T02:37:57;0.90;99.90
18839;DHT22;9548;56.920;14.804;2023-04-06T02:40:24;0.80;99.90
18839;DHT22;9548;56.920;14.804;2023-04-06T02:42:51;0.80;99.90
18839;DHT22;9548;56.920;14.804;2023-04-06T02:45:19;0.80;99.90
18839;DHT22;9548;56.920;14.804;2023-04-06T02:47:46;0.80;99.90
18839;DHT22;9548;56.920;14.804;2023-04-06T02:50:14;0.90;99.90
18839;DHT22;9548;56.920;14.804;2023-04-06T02:52:41;0.80;99.90
18839;DHT22;9548;56.920;14.804;2023-04-06T02:55:08;0.90;99.90
18839;DHT22;9548;56.920;14.804;2023-04-06T02:57:35;0.80;99.90
18839;DHT22;9548;56.920;14.804;2023-04-06T03:00:03;0.90;99.90
18839;DHT22;9548;56.920;14.804;2023-04-06T03:02:30;0.80;99.90
18839;DHT22;9548;56.920;14.804;2023-04-06T03:04:57;0.80;99.90
18839;DHT22;9548;56.920;14.804;2023-04-06T03:07:25;0.80;99.90
18839;DHT22;9548;56.920;14.804;2023-04-06T03:09:52;0.80;99.90
18839;DHT22;9548;56.920;14.804;2023-04-06T03:12:19;0.80;99.90
18839;DHT22;9548;56.920;14.804;2023-04-06T03:14:46;0.80;99.90
18839;DHT22;9548;56.920;14.804;2023-04-06T03:17:13;0.80;99.90
18839;DHT22;9548;56.920;14.804;2023-04-06T03:19:40;0.80;99.90
18839;DHT22;9548;56.920;14.804;2023-04-06T03:22:08;0.80;99.90
18839;DHT22;9548;56.920;14.804;2023-04-06T03:24:36;0.80;99.90
18839;DHT22;9548;56.920;14.804;2023-04-06T03:27:03;0.80;99.90
18839;DHT22;9548;56.920;14.804;2023-04-06T03:29:32;0.80;99.90
18839;DHT22;9548;56.920;14.804;2023-04-06T03:31:58;0.80;99.90
18839;DHT22;9548;56.920;14.804;2023-04-06T03:34:25;0.80;99.90
18839;DHT22;9548;56.920;14.804;2023-04-06T03:36:52;0.80;99.90
18839;DHT22;9548;56.920;14.804;2023-04-06T03:39:19;0.80;99.90
18839;DHT22;9548;56.920;14.804;2023-04-06T03:41:48;0.80;99.90
18839;DHT22;9548;56.920;14.804;2023-04-06T03:44:15;0.90;99.90
18839;DHT22;9548;56.920;14.804;2023-04-06T03:46:42;0.90;99.90
18839;DHT22;9548;56.920;14.804;2023-04-06T03:49:09;0.90;99.90
18839;DHT22;9548;56.920;14.804;2023-04-06T03:51:36;0.90;99.90
18839;DHT22;9548;56.920;14.804;2023-04-06T03:54:03;0.90;99.90
18839;DHT22;9548;56.920;14.804;2023-04-06T03:56:30;0.90;99.90
18839;DHT22;9548;56.920;14.804;2023-04-06T03:58:59;0.90;99.90
18839;DHT22;9548;56.920;14.804;2023-04-06T04:01:27;0.90;99.90
18839;DHT22;9548;56.920;14.804;2023-04-06T04:03:54;0.90;99.90
18839;DHT22;9548;56.920;14.804;2023-04-06T04:06:21;0.90;99.90
18839;DHT22;9548;56.920;14.804;2023-04-06T04:08:48;0.90;99.90
18839;DHT22;9548;56.920;14.804;2023-04-06T04:11:15;0.90;99.90
18839;DHT22;9548;56.920;14.804;2023-04-06T04:13:42;0.90;99.90
18839;DHT22;9548;56.920;14.804;2023-04-06T04:16:10;0.90;99.90
18839;DHT22;9548;56.920;14.804;2023-04-06T04:18:38;0.90;99.90
18839;DHT22;9548;56.920;14.804;2023-04-06T04:21:05;0.90;99.90
18839;DHT22;9548;56.920;14.804;2023-04-06T04:23:31;0.90;99.90
18839;DHT22;9548;56.920;14.804;2023-04-06T04:25:59;0.90;99.90
18839;DHT22;9548;56.920;14.804;2023-04-06T04:28:25;0.90;99.90
18839;DHT22;9548;56.920;14.804;2023-04-06T04:30:52;0.90;99.90
18839;DHT22;9548;56.920;14.804;2023-04-06T04:33:21;0.90;99.90
18839;DHT22;9548;56.920;14.804;2023-04-06T04:35:48;0.90;99.90
18839;DHT22;9548;56.920;14.804;2023-04-06T04:38:15;0.90;99.90
18839;DHT22;9548;56.920;14.804;2023-04-06T04:40:42;0.90;99.90
18839;DHT22;9548;56.920;14.804;2023-04-06T04:43:09;1.00;99.90
18839;DHT22;9548;56.920;14.804;2023-04-06T04:45:36;0.90;99.90
18839;DHT22;9548;56.920;14.804;2023-04-06T04:48:03;0.90;99.90
18839;DHT22;9548;56.920;14.804;2023-04-06T04:50:32;0.90;99.90
18839;DHT22;9548;56.920;14.804;2023-04-06T04:52:59;0.90;99.90
18839;DHT22;9548;56.920;14.804;2023-04-06T04:55:26;0.90;99.90
18839;DHT22;9548;56.920;14.804;2023-04-06T04:57:53;1.00;99.90
18839;DHT22;9548;56.920;14.804;2023-04-06T05:00:20;1.00;99.90
18839;DHT22;9548;56.920;14.804;2023-04-06T05:02:47;1.00;99.90
18839;DHT22;9548;56.920;14.804;2023-04-06T05:05:14;1.00;99.90
18839;DHT22;9548;56.920;14.804;2023-04-06T05:07:42;1.00;99.90
18839;DHT22;9548;56.920;14.804;2023-04-06T05:10:10;1.00;99.90
18839;DHT22;9548;56.920;14.804;2023-04-06T05:12:37;1.00;99.90
18839;DHT22;9548;56.920;14.804;2023-04-06T05:15:05;1.00;99.90
18839;DHT22;9548;56.920;14.804;2023-04-06T05:17:32;1.00;99.90
18839;DHT22;9548;56.920;14.804;2023-04-06T05:20:00;1.00;99.90
18839;DHT22;9548;56.920;14.804;2023-04-06T05:22:27;1.00;99.90
18839;DHT22;9548;56.920;14.804;2023-04-06T05:24:56;1.10;99.90
18839;DHT22;9548;56.920;14.804;2023-04-06T05:27:23;1.10;99.90
18839;DHT22;9548;56.920;14.804;2023-04-06T05:29:50;1.20;99.90
18839;DHT22;9548;56.920;14.804;2023-04-06T05:32:17;1.20;99.90
18839;DHT22;9548;56.920;14.804;2023-04-06T05:34:47;1.20;99.90
18839;DHT22;9548;56.920;14.804;2023-04-06T05:37:14;1.20;99.90
18839;DHT22;9548;56.920;14.804;2023-04-06T05:39:41;1.20;99.90
18839;DHT22;9548;56.920;14.804;2023-04-06T05:42:10;1.20;99.90
18839;DHT22;9548;56.920;14.804;2023-04-06T05:44:37;1.20;99.90
18839;DHT22;9548;56.920;14.804;2023-04-06T05:47:04;1.30;99.90
18839;DHT22;9548;56.920;14.804;2023-04-06T05:49:31;1.30;99.90
18839;DHT22;9548;56.920;14.804;2023-04-06T05:51:58;1.30;99.90
18839;DHT22;9548;56.920;14.804;2023-04-06T05:54:25;1.40;99.90
18839;DHT22;9548;56.920;14.804;2023-04-06T05:56:52;1.40;99.90
18839;DHT22;9548;56.920;14.804;2023-04-06T05:59:21;1.50;99.90
18839;DHT22;9548;56.920;14.804;2023-04-06T06:01:49;1.50;99.90
18839;DHT22;9548;56.920;14.804;2023-04-06T06:04:16;1.50;99.90
18839;DHT22;9548;56.920;14.804;2023-04-06T06:06:43;1.60;99.90
18839;DHT22;9548;56.920;14.804;2023-04-06T06:09:10;1.60;99.90
18839;DHT22;9548;56.920;14.804;2023-04-06T06:11:37;1.60;99.90
18839;DHT22;9548;56.920;14.804;2023-04-06T06:14:04;1.60;99.90
18839;DHT22;9548;56.920;14.804;2023-04-06T06:16:33;1.70;99.90
18839;DHT22;9548;56.920;14.804;2023-04-06T06:19:00;1.80;99.90
18839;DHT22;9548;56.920;14.804;2023-04-06T06:21:27;1.80;99.90
18839;DHT22;9548;56.920;14.804;2023-04-06T06:23:53;1.90;99.90
18839;DHT22;9548;56.920;14.804;2023-04-06T06:26:21;2.10;99.90
18839;DHT22;9548;56.920;14.804;2023-04-06T06:28:48;2.20;99.90
18839;DHT22;9548;56.920;14.804;2023-04-06T06:31:15;2.30;99.90
18839;DHT22;9548;56.920;14.804;2023-04-06T06:33:43;2.30;99.90
18839;DHT22;9548;56.920;14.804;2023-04-06T06:36:10;2.40;99.90
18839;DHT22;9548;56.920;14.804;2023-04-06T06:38:37;2.40;99.90
18839;DHT22;9548;56.920;14.804;2023-04-06T06:41:05;2.40;99.90
18839;DHT22;9548;56.920;14.804;2023-04-06T06:43:31;2.50;99.90
18839;DHT22;9548;56.920;14.804;2023-04-06T06:45:58;2.50;99.90
18839;DHT22;9548;56.920;14.804;2023-04-06T06:48:25;2.60;99.90
18839;DHT22;9548;56.920;14.804;2023-04-06T06:50:54;2.70;99.90
18839;DHT22;9548;56.920;14.804;2023-04-06T06:53:21;2.80;99.90
18839;DHT22;9548;56.920;14.804;2023-04-06T06:55:48;2.90;99.90
18839;DHT22;9548;56.920;14.804;2023-04-06T06:58:17;3.00;99.90
18839;DHT22;9548;56.920;14.804;2023-04-06T07:00:44;3.00;99.90
18839;DHT22;9548;56.920;14.804;2023-04-06T07:03:11;2.90;99.90
18839;DHT22;9548;56.920;14.804;2023-04-06T07:05:45;2.90;99.90
18839;DHT22;9548;56.920;14.804;2023-04-06T07:08:16;2.80;99.90
18839;DHT22;9548;56.920;14.804;2023-04-06T07:10:43;2.70;99.90
18839;DHT22;9548;56.920;14.804;2023-04-06T07:13:09;2.60;99.90
18839;DHT22;9548;56.920;14.804;2023-04-06T07:15:37;2.80;99.90
18839;DHT22;9548;56.920;14.804;2023-04-06T07:18:04;3.00;99.90
18839;DHT22;9548;56.920;14.804;2023-04-06T07:20:31;3.00;99.90
18839;DHT22;9548;56.920;14.804;2023-04-06T07:22:58;3.00;99.90
18839;DHT22;9548;56.920;14.804;2023-04-06T07:25:26;2.90;99.90
18839;DHT22;9548;56.920;14.804;2023-04-06T07:27:53;3.00;99.90
18839;DHT22;9548;56.920;14.804;2023-04-06T07:30:21;3.00;99.90
18839;DHT22;9548;56.920;14.804;2023-04-06T07:32:50;3.00;99.90
18839;DHT22;9548;56.920;14.804;2023-04-06T07:35:17;3.00;99.90
18839;DHT22;9548;56.920;14.804;2023-04-06T07:37:44;3.00;99.90
18839;DHT22;9548;56.920;14.804;2023-04-06T07:40:12;3.00;99.90
18839;DHT22;9548;56.920;14.804;2023-04-06T07:42:40;3.20;99.90
18839;DHT22;9548;56.920;14.804;2023-04-06T07:45:08;3.40;99.90
18839;DHT22;9548;56.920;14.804;2023-04-06T07:47:35;3.50;99.90
18839;DHT22;9548;56.920;14.804;2023-04-06T07:50:02;3.60;99.90
18839;DHT22;9548;56.920;14.804;2023-04-06T07:52:29;3.80;99.90
18839;DHT22;9548;56.920;14.804;2023-04-06T07:54:57;4.00;99.90
18839;DHT22;9548;56.920;14.804;2023-04-06T07:57:24;4.20;99.90
18839;DHT22;9548;56.920;14.804;2023-04-06T07:59:53;4.10;99.90
18839;DHT22;9548;56.920;14.804;2023-04-06T08:02:20;4.20;99.90
18839;DHT22;9548;56.920;14.804;2023-04-06T08:04:47;4.00;99.90
18839;DHT22;9548;56.920;14.804;2023-04-06T08:07:14;3.90;99.90
18839;DHT22;9548;56.920;14.804;2023-04-06T08:09:41;3.80;99.90
18839;DHT22;9548;56.920;14.804;2023-04-06T08:12:08;3.80;99.90
18839;DHT22;9548;56.920;14.804;2023-04-06T08:14:35;3.90;99.90
18839;DHT22;9548;56.920;14.804;2023-04-06T08:17:03;3.90;99.90
18839;DHT22;9548;56.920;14.804;2023-04-06T08:19:30;3.90;99.90
18839;DHT22;9548;56.920;14.804;2023-04-06T08:21:57;3.90;99.90
18839;DHT22;9548;56.920;14.804;2023-04-06T08:24:24;3.90;99.90
18839;DHT22;9548;56.920;14.804;2023-04-06T08:26:52;3.70;99.90
18839;DHT22;9548;56.920;14.804;2023-04-06T08:29:19;3.80;99.90
18839;DHT22;9548;56.920;14.804;2023-04-06T08:31:46;3.70;99.90
18839;DHT22;9548;56.920;14.804;2023-04-06T08:34:14;3.70;99.90
18839;DHT22;9548;56.920;14.804;2023-04-06T08:36:41;3.90;99.90
18839;DHT22;9548;56.920;14.804;2023-04-06T08:39:08;4.10;99.90
18839;DHT22;9548;56.920;14.804;2023-04-06T08:41:36;4.20;99.90
18839;DHT22;9548;56.920;14.804;2023-04-06T08:44:03;4.30;99.90
18839;DHT22;9548;56.920;14.804;2023-04-06T08:46:30;4.70;99.90
18839;DHT22;9548;56.920;14.804;2023-04-06T08:48:59;5.10;99.90
18839;DHT22;9548;56.920;14.804;2023-04-06T08:51:28;5.40;99.90
18839;DHT22;9548;56.920;14.804;2023-04-06T08:53:57;5.40;99.90
18839;DHT22;9548;56.920;14.804;2023-04-06T08:56:25;5.30;99.90
18839;DHT22;9548;56.920;14.804;2023-04-06T08:58:53;5.30;99.90
18839;DHT22;9548;56.920;14.804;2023-04-06T09:01:21;5.50;99.90
18839;DHT22;9548;56.920;14.804;2023-04-06T09:03:50;5.60;99.90
18839;DHT22;9548;56.920;14.804;2023-04-06T09:06:18;5.50;99.90
18839;DHT22;9548;56.920;14.804;2023-04-06T09:08:46;5.50;99.90
18839;DHT22;9548;56.920;14.804;2023-04-06T09:11:14;5.70;99.90
18839;DHT22;9548;56.920;14.804;2023-04-06T09:13:46;5.90;99.90
18839;DHT22;9548;56.920;14.804;2023-04-06T09:16:14;6.00;99.90
18839;DHT22;9548;56.920;14.804;2023-04-06T09:18:41;6.20;99.90
18839;DHT22;9548;56.920;14.804;2023-04-06T09:21:09;6.50;99.90
18839;DHT22;9548;56.920;14.804;2023-04-06T09:23:36;6.90;99.90
18839;DHT22;9548;56.920;14.804;2023-04-06T09:26:10;7.00;99.90
18839;DHT22;9548;56.920;14.804;2023-04-06T09:28:45;7.40;99.90
18839;DHT22;9548;56.920;14.804;2023-04-06T09:31:12;7.40;99.90
18839;DHT22;9548;56.920;14.804;2023-04-06T09:33:41;7.10;99.90
18839;DHT22;9548;56.920;14.804;2023-04-06T09:36:08;6.80;99.90
18839;DHT22;9548;56.920;14.804;2023-04-06T09:38:50;6.50;99.90
18839;DHT22;9548;56.920;14.804;2023-04-06T09:41:23;6.30;99.90
18839;DHT22;9548;56.920;14.804;2023-04-06T09:43:51;6.00;99.90
18839;DHT22;9548;56.920;14.804;2023-04-06T09:46:21;5.90;99.90
18839;DHT22;9548;56.920;14.804;2023-04-06T09:48:49;5.90;99.90
18839;DHT22;9548;56.920;14.804;2023-04-06T09:51:18;5.90;99.90
18839;DHT22;9548;56.920;14.804;2023-04-06T09:53:52;5.60;99.90
18839;DHT22;9548;56.920;14.804;2023-04-06T09:56:24;5.30;99.90
18839;DHT22;9548;56.920;14.804;2023-04-06T09:58:57;5.30;99.90
18839;DHT22;9548;56.920;14.804;2023-04-06T10:01:29;5.60;99.90
18839;DHT22;9548;56.920;14.804;2023-04-06T10:04:06;5.90;99.90
18839;DHT22;9548;56.920;14.804;2023-04-06T10:06:38;5.90;99.90
18839;DHT22;9548;56.920;14.804;2023-04-06T10:09:07;5.90;99.90
18839;DHT22;9548;56.920;14.804;2023-04-06T10:11:36;5.80;99.90
18839;DHT22;9548;56.920;14.804;2023-04-06T10:14:03;5.70;99.90
18839;DHT22;9548;56.920;14.804;2023-04-06T10:16:31;5.60;99.90
18839;DHT22;9548;56.920;14.804;2023-04-06T10:19:04;5.60;99.90
18839;DHT22;9548;56.920;14.804;2023-04-06T10:21:33;5.40;99.90
18839;DHT22;9548;56.920;14.804;2023-04-06T10:24:02;5.50;99.90
18839;DHT22;9548;56.920;14.804;2023-04-06T10:26:36;5.50;99.90
18839;DHT22;9548;56.920;14.804;2023-04-06T10:29:04;5.70;99.90
18839;DHT22;9548;56.920;14.804;2023-04-06T10:31:32;5.80;99.90
18839;DHT22;9548;56.920;14.804;2023-04-06T10:34:01;6.30;99.90
18839;DHT22;9548;56.920;14.804;2023-04-06T10:36:32;6.70;99.90
18839;DHT22;9548;56.920;14.804;2023-04-06T10:39:00;7.20;99.90
18839;DHT22;9548;56.920;14.804;2023-04-06T10:41:36;7.30;99.90
18839;DHT22;9548;56.920;14.804;2023-04-06T10:44:07;7.20;99.90
18839;DHT22;9548;56.920;14.804;2023-04-06T10:46:34;7.00;99.90
18839;DHT22;9548;56.920;14.804;2023-04-06T10:49:12;7.40;99.90
18839;DHT22;9548;56.920;14.804;2023-04-06T10:51:39;8.00;99.90
18839;DHT22;9548;56.920;14.804;2023-04-06T10:54:07;8.40;99.90
18839;DHT22;9548;56.920;14.804;2023-04-06T10:56:38;8.60;99.90
18839;DHT22;9548;56.920;14.804;2023-04-06T10:59:06;9.70;99.90
18839;DHT22;9548;56.920;14.804;2023-04-06T11:01:33;10.30;99.90
18839;DHT22;9548;56.920;14.804;2023-04-06T11:04:00;10.30;99.90
18839;DHT22;9548;56.920;14.804;2023-04-06T11:06:29;9.70;99.90
18839;DHT22;9548;56.920;14.804;2023-04-06T11:08:57;9.40;99.90
18839;DHT22;9548;56.920;14.804;2023-04-06T11:11:25;9.30;99.90
18839;DHT22;9548;56.920;14.804;2023-04-06T11:13:55;8.70;99.90
18839;DHT22;9548;56.920;14.804;2023-04-06T11:16:23;8.50;99.90
18839;DHT22;9548;56.920;14.804;2023-04-06T11:18:52;8.40;99.90
18839;DHT22;9548;56.920;14.804;2023-04-06T11:21:31;8.30;99.90
18839;DHT22;9548;56.920;14.804;2023-04-06T11:24:05;8.90;99.90
18839;DHT22;9548;56.920;14.804;2023-04-06T11:26:37;9.00;99.90
18839;DHT22;9548;56.920;14.804;2023-04-06T11:29:05;9.80;99.90
18839;DHT22;9548;56.920;14.804;2023-04-06T11:31:38;10.70;99.90
18839;DHT22;9548;56.920;14.804;2023-04-06T11:34:10;11.20;99.90
18839;DHT22;9548;56.920;14.804;2023-04-06T11:36:40;12.20;99.90
18839;DHT22;9548;56.920;14.804;2023-04-06T11:39:08;14.90;99.90
18839;DHT22;9548;56.920;14.804;2023-04-06T11:41:35;17.40;96.00
18839;DHT22;9548;56.920;14.804;2023-04-06T11:44:03;17.70;94.50
18839;DHT22;9548;56.920;14.804;2023-04-06T11:46:31;18.30;90.50
18839;DHT22;9548;56.920;14.804;2023-04-06T11:49:00;19.10;87.10
18839;DHT22;9548;56.920;14.804;2023-04-06T11:51:27;19.30;84.40
18839;DHT22;9548;56.920;14.804;2023-04-06T11:53:54;19.20;89.00
18839;DHT22;9548;56.920;14.804;2023-04-06T11:56:26;20.10;83.10
18839;DHT22;9548;56.920;14.804;2023-04-06T11:58:55;18.10;79.20
18839;DHT22;9548;56.920;14.804;2023-04-06T12:01:23;16.60;82.90
18839;DHT22;9548;56.920;14.804;2023-04-06T12:03:52;15.40;88.60
18839;DHT22;9548;56.920;14.804;2023-04-06T12:06:19;14.20;90.50
18839;DHT22;9548;56.920;14.804;2023-04-06T12:08:46;13.50;90.50
18839;DHT22;9548;56.920;14.804;2023-04-06T12:11:13;12.90;89.60
18839;DHT22;9548;56.920;14.804;2023-04-06T12:13:40;13.10;92.80
18839;DHT22;9548;56.920;14.804;2023-04-06T12:16:07;15.30;93.60
18839;DHT22;9548;56.920;14.804;2023-04-06T12:18:34;17.20;80.60
18839;DHT22;9548;56.920;14.804;2023-04-06T12:21:02;17.40;77.20
18839;DHT22;9548;56.920;14.804;2023-04-06T12:23:31;17.00;83.30
18839;DHT22;9548;56.920;14.804;2023-04-06T12:25:57;18.20;80.70
18839;DHT22;9548;56.920;14.804;2023-04-06T12:28:25;19.80;80.50
18839;DHT22;9548;56.920;14.804;2023-04-06T12:30:52;21.80;70.00
18839;DHT22;9548;56.920;14.804;2023-04-06T12:33:20;21.50;64.70
18839;DHT22;9548;56.920;14.804;2023-04-06T12:35:47;22.00;71.30
18839;DHT22;9548;56.920;14.804;2023-04-06T12:38:16;23.50;65.80
18839;DHT22;9548;56.920;14.804;2023-04-06T12:40:43;24.80;60.70
18839;DHT22;9548;56.920;14.804;2023-04-06T12:43:10;24.30;56.80
18839;DHT22;9548;56.920;14.804;2023-04-06T12:45:38;24.20;57.10
18839;DHT22;9548;56.920;14.804;2023-04-06T12:48:06;24.10;58.40
18839;DHT22;9548;56.920;14.804;2023-04-06T12:50:33;24.00;52.00
18839;DHT22;9548;56.920;14.804;2023-04-06T12:53:00;23.30;52.80
18839;DHT22;9548;56.920;14.804;2023-04-06T12:55:30;22.60;55.60
18839;DHT22;9548;56.920;14.804;2023-04-06T12:57:59;22.10;54.70
18839;DHT22;9548;56.920;14.804;2023-04-06T13:00:27;22.50;56.50
18839;DHT22;9548;56.920;14.804;2023-04-06T13:02:54;23.40;55.00
18839;DHT22;9548;56.920;14.804;2023-04-06T13:05:21;24.20;51.00
18839;DHT22;9548;56.920;14.804;2023-04-06T13:07:47;23.20;51.30
18839;DHT22;9548;56.920;14.804;2023-04-06T13:10:15;22.60;51.20
18839;DHT22;9548;56.920;14.804;2023-04-06T13:12:43;21.00;51.30
18839;DHT22;9548;56.920;14.804;2023-04-06T13:15:10;17.90;55.40
18839;DHT22;9548;56.920;14.804;2023-04-06T13:17:38;15.60;59.00
18839;DHT22;9548;56.920;14.804;2023-04-06T13:20:06;15.00;60.50
18839;DHT22;9548;56.920;14.804;2023-04-06T13:22:33;13.90;61.80
18839;DHT22;9548;56.920;14.804;2023-04-06T13:25:00;12.90;63.70
18839;DHT22;9548;56.920;14.804;2023-04-06T13:27:27;13.50;64.10
18839;DHT22;9548;56.920;14.804;2023-04-06T13:29:55;14.30;63.20
18839;DHT22;9548;56.920;14.804;2023-04-06T13:32:22;14.60;64.40
18839;DHT22;9548;56.920;14.804;2023-04-06T13:34:49;15.00;63.60
18839;DHT22;9548;56.920;14.804;2023-04-06T13:37:18;15.80;60.40
18839;DHT22;9548;56.920;14.804;2023-04-06T13:39:45;16.90;61.70
18839;DHT22;9548;56.920;14.804;2023-04-06T13:42:12;19.20;59.80
18839;DHT22;9548;56.920;14.804;2023-04-06T13:44:39;18.70;58.50
18839;DHT22;9548;56.920;14.804;2023-04-06T13:47:08;17.60;55.80
18839;DHT22;9548;56.920;14.804;2023-04-06T13:49:35;17.70;57.80
18839;DHT22;9548;56.920;14.804;2023-04-06T13:52:02;18.10;54.30
18839;DHT22;9548;56.920;14.804;2023-04-06T13:54:29;20.00;57.50
18839;DHT22;9548;56.920;14.804;2023-04-06T13:56:56;21.80;52.80
18839;DHT22;9548;56.920;14.804;2023-04-06T13:59:23;21.30;53.70
18839;DHT22;9548;56.920;14.804;2023-04-06T14:01:50;19.50;54.30
18839;DHT22;9548;56.920;14.804;2023-04-06T14:04:18;18.50;56.20
18839;DHT22;9548;56.920;14.804;2023-04-06T14:06:45;19.00;56.50
18839;DHT22;9548;56.920;14.804;2023-04-06T14:09:12;20.70;56.00
18839;DHT22;9548;56.920;14.804;2023-04-06T14:11:40;20.50;53.60
18839;DHT22;9548;56.920;14.804;2023-04-06T14:14:07;22.20;51.50
18839;DHT22;9548;56.920;14.804;2023-04-06T14:16:33;23.40;52.20
18839;DHT22;9548;56.920;14.804;2023-04-06T14:19:01;24.20;50.10
18839;DHT22;9548;56.920;14.804;2023-04-06T14:21:29;23.30;48.90
18839;DHT22;9548;56.920;14.804;2023-04-06T14:23:56;23.60;47.40
18839;DHT22;9548;56.920;14.804;2023-04-06T14:26:23;24.10;47.40
18839;DHT22;9548;56.920;14.804;2023-04-06T14:28:50;23.90;49.50
18839;DHT22;9548;56.920;14.804;2023-04-06T14:31:18;23.80;48.70
18839;DHT22;9548;56.920;14.804;2023-04-06T14:33:45;23.20;49.20
18839;DHT22;9548;56.920;14.804;2023-04-06T14:36:12;22.40;49.40
18839;DHT22;9548;56.920;14.804;2023-04-06T14:38:40;23.00;51.00
18839;DHT22;9548;56.920;14.804;2023-04-06T14:41:15;24.70;49.40
18839;DHT22;9548;56.920;14.804;2023-04-06T14:43:42;23.90;46.80
18839;DHT22;9548;56.920;14.804;2023-04-06T14:46:09;24.00;47.90
18839;DHT22;9548;56.920;14.804;2023-04-06T14:48:36;25.20;47.00
18839;DHT22;9548;56.920;14.804;2023-04-06T14:51:03;25.60;45.50
18839;DHT22;9548;56.920;14.804;2023-04-06T14:53:30;25.90;45.90
18839;DHT22;9548;56.920;14.804;2023-04-06T14:55:58;25.90;44.20
18839;DHT22;9548;56.920;14.804;2023-04-06T14:58:25;27.00;44.90
18839;DHT22;9548;56.920;14.804;2023-04-06T15:00:55;25.40;43.40
18839;DHT22;9548;56.920;14.804;2023-04-06T15:03:22;24.80;45.10
18839;DHT22;9548;56.920;14.804;2023-04-06T15:05:50;23.70;45.20
18839;DHT22;9548;56.920;14.804;2023-04-06T15:08:17;22.10;46.90
18839;DHT22;9548;56.920;14.804;2023-04-06T15:10:46;21.30;47.70
18839;DHT22;9548;56.920;14.804;2023-04-06T15:13:14;21.70;49.00
18839;DHT22;9548;56.920;14.804;2023-04-06T15:15:42;21.70;47.50
18839;DHT22;9548;56.920;14.804;2023-04-06T15:18:09;23.50;47.50
18839;DHT22;9548;56.920;14.804;2023-04-06T15:20:36;24.20;46.10
18839;DHT22;9548;56.920;14.804;2023-04-06T15:23:04;22.60;45.70
18839;DHT22;9548;56.920;14.804;2023-04-06T15:25:31;22.90;46.80
18839;DHT22;9548;56.920;14.804;2023-04-06T15:27:57;22.80;45.90
18839;DHT22;9548;56.920;14.804;2023-04-06T15:30:26;23.60;45.00
18839;DHT22;9548;56.920;14.804;2023-04-06T15:32:56;21.80;46.80
18839;DHT22;9548;56.920;14.804;2023-04-06T15:35:24;20.70;48.20
18839;DHT22;9548;56.920;14.804;2023-04-06T15:37:53;19.60;49.60
18839;DHT22;9548;56.920;14.804;2023-04-06T15:40:20;20.40;49.50
18839;DHT22;9548;56.920;14.804;2023-04-06T15:42:47;20.20;49.10
18839;DHT22;9548;56.920;14.804;2023-04-06T15:45:14;20.50;48.40